createdAt,value
2022-12-19T00:02:25.190Z,100.00
2022-12-19T00:04:53.578Z,100.00
2022-12-19T00:07:22.070Z,100.00
2022-12-19T00:09:50.312Z,100.00
2022-12-19T00:12:19.361Z,100.00
2022-12-19T00:14:48.384Z,100.00
2022-12-19T00:17:16.902Z,100.00
2022-12-19T00:19:46.684Z,100.00
2022-12-19T00:22:15.064Z,100.00
2022-12-19T00:24:43.508Z,100.00
2022-12-19T00:27:11.762Z,100.00
2022-12-19T00:29:40.031Z,100.00
2022-12-19T00:32:08.297Z,100.00
2022-12-19T00:34:36.610Z,100.00
2022-12-19T00:37:06.202Z,100.00
2022-12-19T00:39:34.453Z,100.00
2022-12-19T00:42:02.809Z,100.00
2022-12-19T00:44:31.046Z,100.00
2022-12-19T00:46:59.304Z,100.00
2022-12-19T00:49:27.540Z,100.00
2022-12-19T00:51:57.368Z,100.00
2022-12-19T00:54:27.228Z,100.00
2022-12-19T00:56:55.630Z,100.00
2022-12-19T00:59:26.435Z,100.00
2022-12-19T01:01:55.306Z,100.00
2022-12-19T01:04:28.513Z,100.00
2022-12-19T01:06:59.629Z,100.00
2022-12-19T01:09:33.229Z,100.00
2022-12-19T01:12:19.131Z,100.00
2022-12-19T01:14:49.051Z,100.00
2022-12-19T01:17:17.328Z,100.00
2022-12-19T01:19:45.648Z,100.00
2022-12-19T01:22:14.144Z,100.00
2022-12-19T01:24:44.247Z,100.00
2022-12-19T01:27:12.564Z,100.00
2022-12-19T01:29:51.818Z,100.00
2022-12-19T01:32:21.673Z,100.00
2022-12-19T01:34:50.002Z,100.00
2022-12-19T01:37:18.602Z,100.00
2022-12-19T01:39:48.548Z,100.00
2022-12-19T01:42:22.951Z,100.00
2022-12-19T01:45:35.915Z,100.00
2022-12-19T01:48:12.593Z,100.00
2022-12-19T01:51:01.097Z,100.00
2022-12-19T01:53:35.121Z,100.00
2022-12-19T01:56:08.435Z,100.00
2022-12-19T01:58:38.031Z,100.00
2022-12-19T02:01:06.792Z,100.00
2022-12-19T02:03:38.493Z,100.00
2022-12-19T02:06:08.091Z,100.00
2022-12-19T02:08:36.858Z,100.00
2022-12-19T02:11:06.695Z,100.00
2022-12-19T02:13:35.286Z,100.00
2022-12-19T02:16:10.663Z,100.00
2022-12-19T02:18:42.988Z,100.00
2022-12-19T02:21:19.317Z,100.00
2022-12-19T02:24:28.742Z,100.00
2022-12-19T02:27:39.783Z,100.00
2022-12-19T02:30:12.163Z,100.00
2022-12-19T02:32:49.257Z,100.00
2022-12-19T02:35:25.251Z,100.00
2022-12-19T02:37:59.308Z,100.00
2022-12-19T02:40:31.582Z,100.00
2022-12-19T02:43:02.349Z,100.00
2022-12-19T02:45:34.907Z,100.00
2022-12-19T02:48:08.854Z,100.00
2022-12-19T02:50:41.497Z,100.00
2022-12-19T02:53:11.709Z,100.00
2022-12-19T02:55:48.343Z,100.00
2022-12-19T02:58:33.667Z,100.00
2022-12-19T03:01:09.825Z,100.00
2022-12-19T03:03:46.972Z,100.00
2022-12-19T03:06:20.117Z,100.00
2022-12-19T03:08:52.380Z,100.00
2022-12-19T03:11:23.598Z,100.00
2022-12-19T03:13:55.746Z,100.00
2022-12-19T03:16:24.576Z,100.00
2022-12-19T03:18:55.112Z,100.00
2022-12-19T03:21:24.819Z,100.00
2022-12-19T03:23:55.502Z,100.00
2022-12-19T03:26:27.396Z,100.00
2022-12-19T03:28:58.213Z,100.00
2022-12-19T03:31:29.826Z,100.00
2022-12-19T03:34:02.432Z,100.00
2022-12-19T03:36:34.110Z,100.00
2022-12-19T03:39:04.457Z,100.00
2022-12-19T03:41:50.209Z,100.00
2022-12-19T03:44:19.232Z,100.00
2022-12-19T03:46:52.886Z,100.00
2022-12-19T03:49:22.518Z,100.00
2022-12-19T03:51:59.322Z,100.00
2022-12-19T03:54:30.216Z,100.00
2022-12-19T03:57:02.394Z,100.00
2022-12-19T03:59:34.494Z,100.00
2022-12-19T04:02:03.134Z,100.00
2022-12-19T04:04:36.862Z,100.00
2022-12-19T04:07:05.374Z,100.00
2022-12-19T04:09:34.780Z,100.00
2022-12-19T04:12:06.040Z,100.00
2022-12-19T04:14:36.075Z,100.00
2022-12-19T04:17:11.229Z,100.00
2022-12-19T04:19:44.907Z,100.00
2022-12-19T04:22:16.276Z,100.00
2022-12-19T04:24:45.625Z,100.00
2022-12-19T04:27:14.805Z,100.00
2022-12-19T04:29:43.923Z,100.00
2022-12-19T04:32:12.690Z,100.00
2022-12-19T04:34:43.138Z,100.00
2022-12-19T04:37:11.764Z,100.00
2022-12-19T04:39:39.952Z,100.00
2022-12-19T04:42:08.370Z,100.00
2022-12-19T04:44:36.636Z,100.00
2022-12-19T04:47:05.061Z,100.00
2022-12-19T04:49:33.389Z,100.00
2022-12-19T04:52:03.155Z,100.00
2022-12-19T04:54:31.482Z,100.00
2022-12-19T04:56:59.725Z,100.00
2022-12-19T04:59:28.023Z,100.00
2022-12-19T05:01:56.565Z,100.00
2022-12-19T05:04:25.466Z,100.00
2022-12-19T05:06:53.755Z,100.00
2022-12-19T05:09:23.524Z,100.00
2022-12-19T05:11:52.894Z,100.00
2022-12-19T05:14:21.185Z,100.00
2022-12-19T05:16:49.446Z,100.00
2022-12-19T05:19:17.806Z,100.00
2022-12-19T05:21:46.132Z,100.00
2022-12-19T05:24:14.410Z,100.00
2022-12-19T05:26:44.053Z,100.00
2022-12-19T05:29:12.406Z,100.00
2022-12-19T05:31:40.747Z,100.00
2022-12-19T05:34:09.163Z,100.00
2022-12-19T05:36:37.455Z,100.00
2022-12-19T05:39:05.746Z,100.00
2022-12-19T05:41:33.932Z,100.00
2022-12-19T05:44:03.616Z,100.00
2022-12-19T05:46:31.901Z,100.00
2022-12-19T05:49:00.375Z,100.00
2022-12-19T05:51:28.956Z,100.00
2022-12-19T05:53:57.182Z,100.00
2022-12-19T05:56:25.418Z,100.00
2022-12-19T05:58:54.546Z,100.00
2022-12-19T06:01:25.976Z,100.00
2022-12-19T06:03:55.514Z,100.00
2022-12-19T06:06:25.574Z,100.00
2022-12-19T06:08:55.101Z,100.00
2022-12-19T06:11:23.722Z,100.00
2022-12-19T06:13:52.125Z,100.00
2022-12-19T06:16:21.943Z,100.00
2022-12-19T06:18:51.759Z,100.00
2022-12-19T06:21:21.566Z,100.00
2022-12-19T06:23:50.178Z,100.00
2022-12-19T06:26:20.535Z,100.00
2022-12-19T06:28:49.101Z,100.00
2022-12-19T06:31:17.811Z,100.00
2022-12-19T06:33:46.229Z,100.00
2022-12-19T06:36:18.851Z,100.00
2022-12-19T06:38:47.414Z,100.00
2022-12-19T06:41:33.695Z,100.00
2022-12-19T06:44:02.627Z,100.00
2022-12-19T06:46:31.036Z,100.00
2022-12-19T06:48:59.455Z,100.00
2022-12-19T06:51:29.249Z,100.00
2022-12-19T06:53:57.625Z,100.00
2022-12-19T06:56:26.181Z,100.00
2022-12-19T06:58:54.865Z,100.00
2022-12-19T07:01:44.665Z,100.00
2022-12-19T07:04:17.365Z,100.00
2022-12-19T07:06:49.240Z,100.00
2022-12-19T07:09:18.205Z,100.00
2022-12-19T07:11:46.500Z,100.00
2022-12-19T07:14:14.973Z,100.00
2022-12-19T07:16:43.492Z,100.00
2022-12-19T07:19:11.847Z,100.00
2022-12-19T07:21:40.429Z,100.00
2022-12-19T07:24:11.144Z,100.00
2022-12-19T07:26:39.585Z,100.00
2022-12-19T07:29:08.363Z,100.00
2022-12-19T07:31:36.904Z,100.00
2022-12-19T07:34:05.233Z,100.00
2022-12-19T07:36:33.527Z,100.00
2022-12-19T07:39:02.450Z,100.00
2022-12-19T07:41:32.342Z,100.00
2022-12-19T07:44:01.445Z,100.00
2022-12-19T07:46:30.641Z,100.00
2022-12-19T07:49:01.900Z,100.00
2022-12-19T07:51:30.097Z,100.00
2022-12-19T07:53:59.376Z,100.00
2022-12-19T07:56:28.280Z,100.00
2022-12-19T07:58:58.138Z,100.00
2022-12-19T08:01:28.259Z,100.00
2022-12-19T08:03:58.242Z,100.00
2022-12-19T08:06:27.987Z,100.00
2022-12-19T08:08:57.078Z,100.00
2022-12-19T08:11:27.734Z,100.00
2022-12-19T08:13:56.372Z,100.00
2022-12-19T08:16:27.815Z,100.00
2022-12-19T08:18:56.656Z,100.00
2022-12-19T08:21:25.135Z,100.00
2022-12-19T08:23:54.219Z,100.00
2022-12-19T08:26:26.001Z,100.00
2022-12-19T08:28:54.568Z,100.00
2022-12-19T08:31:24.974Z,100.00
2022-12-19T08:33:56.882Z,100.00
2022-12-19T08:36:25.496Z,100.00
2022-12-19T08:38:54.495Z,100.00
2022-12-19T08:41:23.324Z,100.00
2022-12-19T08:43:53.294Z,100.00
2022-12-19T08:46:21.992Z,100.00
2022-12-19T08:48:50.947Z,100.00
2022-12-19T08:51:21.059Z,100.00
2022-12-19T08:53:49.294Z,100.00
2022-12-19T08:56:19.813Z,100.00
2022-12-19T08:58:48.301Z,100.00
2022-12-19T09:01:19.295Z,100.00
2022-12-19T09:04:26.789Z,100.00
2022-12-19T09:06:38.428Z,100.00
2022-12-19T09:09:07.090Z,100.00
2022-12-19T09:11:46.555Z,100.00
2022-12-19T09:14:21.215Z,100.00
2022-12-19T09:16:49.942Z,100.00
2022-12-19T09:19:18.264Z,100.00
2022-12-19T09:21:47.841Z,100.00
2022-12-19T09:24:16.146Z,100.00
2022-12-19T09:26:45.658Z,100.00
2022-12-19T09:29:20.610Z,100.00
2022-12-19T09:31:53.856Z,100.00
2022-12-19T09:34:37.833Z,100.00
2022-12-19T09:37:15.419Z,100.00
2022-12-19T09:39:45.502Z,100.00
2022-12-19T09:42:26.613Z,100.00
2022-12-19T09:45:09.752Z,100.00
2022-12-19T09:47:44.153Z,98.87
2022-12-19T09:50:25.131Z,94.77
2022-12-19T09:52:59.091Z,100.00
2022-12-19T09:55:30.080Z,99.63
2022-12-19T09:58:01.333Z,100.00
2022-12-19T10:00:36.023Z,99.55
2022-12-19T10:03:08.719Z,100.00
2022-12-19T10:06:44.031Z,100.00
2022-12-19T10:08:34.140Z,98.71
2022-12-19T10:12:46.511Z,94.34
2022-12-19T10:14:08.531Z,91.51
2022-12-19T10:17:01.765Z,91.54
2022-12-19T10:19:39.491Z,91.96
2022-12-19T10:22:19.141Z,90.78
2022-12-19T10:25:09.127Z,94.16
2022-12-19T10:27:58.715Z,92.49
2022-12-19T10:30:31.731Z,97.97
2022-12-19T10:33:07.091Z,94.62
2022-12-19T10:35:44.253Z,92.19
2022-12-19T10:38:22.523Z,90.06
2022-12-19T10:40:55.230Z,88.38
2022-12-19T10:43:40.822Z,91.64
2022-12-19T10:46:15.364Z,91.52
2022-12-19T10:48:43.808Z,92.34
2022-12-19T10:51:13.910Z,94.14
2022-12-19T10:53:42.312Z,91.53
2022-12-19T10:56:23.831Z,94.63
2022-12-19T10:58:57.403Z,97.88
2022-12-19T11:01:27.871Z,94.80
2022-12-19T11:04:28.849Z,100.00
2022-12-19T11:07:18.500Z,100.00
2022-12-19T11:10:12.685Z,100.00
2022-12-19T11:16:56.646Z,100.00
2022-12-19T11:19:23.920Z,100.00
2022-12-19T11:26:50.516Z,100.00
2022-12-19T11:29:34.916Z,100.00
2022-12-19T11:29:38.360Z,100.00
2022-12-19T11:30:35.456Z,100.00
2022-12-19T11:32:42.058Z,100.00
2022-12-19T11:35:19.342Z,100.00
2022-12-19T11:37:55.392Z,100.00
2022-12-19T11:40:32.464Z,100.00
2022-12-19T11:43:42.494Z,100.00
2022-12-19T11:46:00.234Z,100.00
2022-12-19T11:48:36.085Z,100.00
2022-12-19T11:51:11.200Z,100.00
2022-12-19T11:53:46.871Z,100.00
2022-12-19T11:56:17.800Z,100.00
2022-12-19T11:58:50.839Z,100.00
2022-12-19T12:01:27.161Z,99.09
2022-12-19T12:04:13.867Z,100.00
2022-12-19T12:06:47.503Z,100.00
2022-12-19T12:12:05.352Z,99.28
2022-12-19T12:19:48.626Z,100.00
2022-12-19T12:27:46.179Z,100.00
2022-12-19T12:31:19.170Z,100.00
2022-12-19T12:31:26.820Z,100.00
2022-12-19T12:31:31.950Z,100.00
2022-12-19T12:31:38.990Z,100.00
2022-12-19T12:31:51.875Z,100.00
2022-12-19T12:35:40.781Z,100.00
2022-12-19T12:39:06.545Z,100.00
2022-12-19T12:41:59.905Z,100.00
2022-12-19T12:44:32.640Z,100.00
2022-12-19T12:47:06.981Z,100.00
2022-12-19T12:49:41.563Z,100.00
2022-12-19T12:52:15.879Z,100.00
2022-12-19T12:54:47.767Z,100.00
2022-12-19T12:57:20.835Z,100.00
2022-12-19T13:00:19.537Z,100.00
2022-12-19T13:02:51.217Z,100.00
2022-12-19T13:05:42.550Z,100.00
2022-12-19T13:08:35.877Z,100.00
2022-12-19T13:11:06.493Z,100.00
2022-12-19T13:13:55.298Z,100.00
2022-12-19T13:16:53.643Z,100.00
2022-12-19T13:19:28.523Z,100.00
2022-12-19T13:22:21.426Z,100.00
2022-12-19T13:24:51.242Z,100.00
2022-12-19T13:27:41.553Z,100.00
2022-12-19T13:30:19.065Z,100.00
2022-12-19T13:33:11.107Z,100.00
2022-12-19T13:38:58.027Z,100.00
2022-12-19T13:39:50.749Z,100.00
2022-12-19T13:41:45.640Z,100.00
2022-12-19T13:44:14.083Z,100.00
2022-12-19T13:46:43.525Z,100.00
2022-12-19T13:49:16.531Z,100.00
2022-12-19T13:51:50.184Z,100.00
2022-12-19T13:54:26.918Z,100.00
2022-12-19T13:56:56.383Z,100.00
2022-12-19T13:59:26.995Z,100.00
2022-12-19T14:01:55.159Z,100.00
2022-12-19T14:04:30.168Z,100.00
2022-12-19T14:07:01.897Z,100.00
2022-12-19T14:11:33.125Z,100.00
2022-12-19T14:13:59.285Z,100.00
2022-12-19T14:15:30.390Z,100.00
2022-12-19T14:18:29.969Z,100.00
2022-12-19T14:22:07.037Z,100.00
2022-12-19T14:23:44.215Z,100.00
2022-12-19T14:28:20.290Z,100.00
2022-12-19T14:29:06.578Z,100.00
2022-12-19T14:31:37.403Z,100.00
2022-12-19T14:36:05.218Z,100.00
2022-12-19T14:36:58.675Z,100.00
2022-12-19T14:39:31.810Z,100.00
2022-12-19T14:42:31.624Z,100.00
2022-12-19T14:52:25.320Z,100.00
2022-12-19T14:52:51.968Z,100.00
2022-12-19T14:54:11.326Z,100.00
2022-12-19T14:57:50.665Z,100.00
2022-12-19T15:01:07.154Z,100.00
2022-12-19T15:03:20.712Z,100.00
2022-12-19T15:05:49.286Z,100.00
2022-12-19T15:08:44.500Z,100.00
2022-12-19T15:11:53.630Z,100.00
2022-12-19T15:14:56.620Z,100.00
2022-12-19T15:17:24.032Z,100.00
2022-12-19T15:19:52.650Z,100.00
2022-12-19T15:22:20.900Z,100.00
2022-12-19T15:24:49.179Z,100.00
2022-12-19T15:27:18.958Z,100.00
2022-12-19T15:29:47.231Z,100.00
2022-12-19T15:32:16.518Z,100.00
2022-12-19T15:34:51.008Z,100.00
2022-12-19T15:37:20.505Z,100.00
2022-12-19T15:39:48.769Z,100.00
2022-12-19T15:42:20.421Z,100.00
2022-12-19T15:44:49.613Z,100.00
2022-12-19T15:47:19.816Z,100.00
2022-12-19T15:49:48.312Z,100.00
2022-12-19T15:52:17.789Z,100.00
2022-12-19T15:54:49.124Z,100.00
2022-12-19T15:57:25.429Z,100.00
2022-12-19T15:59:54.017Z,100.00
2022-12-19T16:02:42.705Z,100.00
2022-12-19T16:05:16.359Z,100.00
2022-12-19T16:07:44.823Z,100.00
2022-12-19T16:10:14.289Z,100.00
2022-12-19T16:12:45.296Z,100.00
2022-12-19T16:15:26.378Z,100.00
2022-12-19T16:17:54.891Z,100.00
2022-12-19T16:20:25.313Z,100.00
2022-12-19T16:22:55.032Z,100.00
2022-12-19T16:25:26.021Z,100.00
2022-12-19T16:27:57.560Z,100.00
2022-12-19T16:30:30.351Z,100.00
2022-12-19T16:32:58.766Z,100.00
2022-12-19T16:36:02.398Z,100.00
2022-12-19T16:38:17.265Z,100.00
2022-12-19T16:40:45.999Z,100.00
2022-12-19T16:43:17.553Z,100.00
2022-12-19T16:45:46.182Z,100.00
2022-12-19T16:48:19.854Z,100.00
2022-12-19T16:50:48.378Z,100.00
2022-12-19T16:53:17.253Z,100.00
2022-12-19T16:55:46.749Z,100.00
2022-12-19T16:58:20.924Z,100.00
2022-12-19T17:00:49.970Z,100.00
2022-12-19T17:03:28.683Z,100.00
2022-12-19T17:05:57.075Z,100.00
2022-12-19T17:08:25.370Z,100.00
2022-12-19T17:10:54.444Z,100.00
2022-12-19T17:13:25.047Z,100.00
2022-12-19T17:15:56.974Z,100.00
2022-12-19T17:18:28.833Z,100.00
2022-12-19T17:20:57.141Z,100.00
2022-12-19T17:23:26.453Z,100.00
2022-12-19T17:25:55.464Z,100.00
2022-12-19T17:28:25.144Z,100.00
2022-12-19T17:30:55.491Z,100.00
2022-12-19T17:33:25.365Z,100.00
2022-12-19T17:35:53.649Z,100.00
2022-12-19T17:38:21.937Z,100.00
2022-12-19T17:40:50.193Z,100.00
2022-12-19T17:43:18.778Z,100.00
2022-12-19T17:45:48.445Z,100.00
2022-12-19T17:48:22.786Z,100.00
2022-12-19T17:50:51.297Z,100.00
2022-12-19T17:53:19.666Z,100.00
2022-12-19T17:55:47.930Z,100.00
2022-12-19T17:58:16.174Z,100.00
2022-12-19T18:00:44.748Z,100.00
2022-12-19T18:03:19.526Z,100.00
2022-12-19T18:05:48.659Z,100.00
2022-12-19T18:08:27.728Z,100.00
2022-12-19T18:10:57.580Z,100.00
2022-12-19T18:13:26.176Z,100.00
2022-12-19T18:15:57.861Z,100.00
2022-12-19T18:18:31.404Z,100.00
2022-12-19T18:21:00.830Z,100.00
2022-12-19T18:23:30.416Z,100.00
2022-12-19T18:26:01.767Z,100.00
2022-12-19T18:28:31.393Z,100.00
2022-12-19T18:31:01.371Z,100.00
2022-12-19T18:33:38.042Z,100.00
2022-12-19T18:36:07.466Z,100.00
2022-12-19T18:38:36.098Z,100.00
2022-12-19T18:41:04.427Z,100.00
2022-12-19T18:43:33.551Z,100.00
2022-12-19T18:46:01.942Z,100.00
2022-12-19T18:48:33.359Z,100.00
2022-12-19T18:51:02.070Z,100.00
2022-12-19T18:53:35.297Z,100.00
2022-12-19T18:56:05.433Z,100.00
2022-12-19T18:58:33.789Z,100.00
2022-12-19T19:01:02.902Z,100.00
2022-12-19T19:03:34.256Z,100.00
2022-12-19T19:06:03.691Z,100.00
2022-12-19T19:08:33.651Z,100.00
2022-12-19T19:11:02.153Z,100.00
2022-12-19T19:13:31.437Z,100.00
2022-12-19T19:16:01.819Z,100.00
2022-12-19T19:18:35.286Z,100.00
2022-12-19T19:21:04.683Z,100.00
2022-12-19T19:23:35.366Z,100.00
2022-12-19T19:26:03.681Z,100.00
2022-12-19T19:28:32.031Z,100.00
2022-12-19T19:31:01.171Z,100.00
2022-12-19T19:33:35.487Z,100.00
2022-12-19T19:36:11.674Z,100.00
2022-12-19T19:38:41.540Z,100.00
2022-12-19T19:41:09.777Z,100.00
2022-12-19T19:43:38.040Z,100.00
2022-12-19T19:46:06.704Z,100.00
2022-12-19T19:48:36.692Z,100.00
2022-12-19T19:51:05.092Z,100.00
2022-12-19T19:53:33.720Z,100.00
2022-12-19T19:56:02.311Z,100.00
2022-12-19T19:58:30.954Z,100.00
2022-12-19T20:00:59.355Z,100.00
2022-12-19T20:03:27.997Z,100.00
2022-12-19T20:06:01.614Z,100.00
2022-12-19T20:08:38.618Z,100.00
2022-12-19T20:11:07.458Z,100.00
2022-12-19T20:13:35.838Z,100.00
2022-12-19T20:16:04.626Z,100.00
2022-12-19T20:18:33.011Z,100.00
2022-12-19T20:21:05.583Z,100.00
2022-12-19T20:23:37.546Z,100.00
2022-12-19T20:26:06.760Z,100.00
2022-12-19T20:28:35.068Z,100.00
2022-12-19T20:31:03.506Z,100.00
2022-12-19T20:33:32.096Z,100.00
2022-12-19T20:36:08.124Z,100.00
2022-12-19T20:38:36.499Z,100.00
2022-12-19T20:41:04.989Z,100.00
2022-12-19T20:43:33.828Z,100.00
2022-12-19T20:46:02.415Z,100.00
2022-12-19T20:48:30.795Z,100.00
2022-12-19T20:50:59.605Z,100.00
2022-12-19T20:53:29.308Z,100.00
2022-12-19T20:55:58.890Z,100.00
2022-12-19T20:58:28.237Z,100.00
2022-12-19T21:00:56.606Z,100.00
2022-12-19T21:03:28.297Z,100.00
2022-12-19T21:05:58.001Z,100.00
2022-12-19T21:08:27.187Z,100.00
2022-12-19T21:10:56.889Z,100.00
2022-12-19T21:13:25.306Z,100.00
2022-12-19T21:15:54.500Z,100.00
2022-12-19T21:18:23.131Z,100.00
2022-12-19T21:20:54.458Z,100.00
2022-12-19T21:23:23.061Z,100.00
2022-12-19T21:25:51.389Z,100.00
2022-12-19T21:28:21.393Z,100.00
2022-12-19T21:30:56.631Z,100.00
2022-12-19T21:33:24.911Z,100.00
2022-12-19T21:35:53.192Z,100.00
2022-12-19T21:38:21.625Z,100.00
2022-12-19T21:40:49.947Z,100.00
2022-12-19T21:43:18.163Z,100.00
2022-12-19T21:45:47.923Z,100.00
2022-12-19T21:48:16.196Z,100.00
2022-12-19T21:50:44.462Z,100.00
2022-12-19T21:53:12.692Z,100.00
2022-12-19T21:55:41.047Z,100.00
2022-12-19T21:58:09.285Z,100.00
2022-12-19T22:00:37.568Z,100.00
2022-12-19T22:03:15.514Z,100.00
2022-12-19T22:05:43.977Z,100.00
2022-12-19T22:08:12.258Z,100.00
2022-12-19T22:10:40.683Z,100.00
2022-12-19T22:13:09.122Z,100.00
2022-12-19T22:15:37.478Z,100.00
2022-12-19T22:18:07.277Z,100.00
2022-12-19T22:20:35.636Z,100.00
2022-12-19T22:23:09.701Z,100.00
2022-12-19T22:25:41.289Z,100.00
2022-12-19T22:28:09.605Z,100.00
2022-12-19T22:30:37.989Z,100.00
2022-12-19T22:33:07.594Z,100.00
2022-12-19T22:35:35.934Z,100.00
2022-12-19T22:38:04.213Z,100.00
2022-12-19T22:40:33.164Z,100.00
2022-12-19T22:43:01.414Z,100.00
2022-12-19T22:45:31.292Z,100.00
2022-12-19T22:47:59.713Z,100.00
2022-12-19T22:50:29.402Z,100.00
2022-12-19T22:52:57.668Z,100.00
2022-12-19T22:55:25.956Z,100.00
2022-12-19T22:57:54.207Z,100.00
2022-12-19T23:00:23.292Z,100.00
2022-12-19T23:02:51.663Z,100.00
2022-12-19T23:05:20.239Z,100.00
2022-12-19T23:07:49.862Z,100.00
2022-12-19T23:10:18.441Z,100.00
2022-12-19T23:12:46.691Z,100.00
2022-12-19T23:15:14.999Z,100.00
2022-12-19T23:17:43.271Z,100.00
2022-12-19T23:20:12.220Z,100.00
2022-12-19T23:22:40.508Z,100.00
2022-12-19T23:25:11.767Z,100.00
2022-12-19T23:27:41.505Z,100.00
2022-12-19T23:30:11.302Z,100.00
2022-12-19T23:32:41.761Z,100.00
2022-12-19T23:35:13.757Z,100.00
2022-12-19T23:37:42.062Z,100.00
2022-12-19T23:40:12.534Z,100.00
2022-12-19T23:42:40.899Z,100.00
2022-12-19T23:45:10.220Z,100.00
2022-12-19T23:47:38.516Z,100.00
2022-12-19T23:50:08.209Z,100.00
2022-12-19T23:52:36.435Z,100.00
2022-12-19T23:55:05.337Z,100.00
2022-12-19T23:57:34.975Z,100.00
